Time;durP1;ratioP1;P1;durP2;ratioP2;P2;SDS_P1;SDS_P2;PMS_P1;PMS_P2;Temp;Humidity;BMP_temperature;BMP_pressure;BME280_temperature;BME280_humidity;BME280_pressure;Samples;Min_cycle;Max_cycle;Signal;HPM_P1;HPM_P2
2023/11/08 00:01:48;;;;;;;7.85;4.35;;;;;;;8.54;77.46;94889.31;5106324;28;20042;-76
2023/11/08 00:04:14;;;;;;;8.88;4.03;;;;;;;8.57;76.55;94877.91;5109302;28;21091;-75
2023/11/08 00:06:39;;;;;;;10.52;4.35;;;;;;;8.36;77.12;94857.81;5107319;28;20054;-75
2023/11/08 00:09:05;;;;;;;8.75;4.38;;;;;;;8.48;76.49;94856.09;5107472;28;20104;-74
2023/11/08 00:11:32;;;;;;;7.63;3.92;;;;;;;8.21;77.21;94857.16;5104322;28;20484;-74
2023/11/08 00:13:57;;;;;;;7.40;4.00;;;;;;;8.70;76.98;94868.28;5073126;28;20519;-74
2023/11/08 00:16:22;;;;;;;6.53;3.80;;;;;;;8.40;76.84;94841.13;5108363;28;20028;-75
2023/11/08 00:18:48;;;;;;;7.05;3.55;;;;;;;8.60;76.55;94872.50;5107012;28;20159;-75
2023/11/08 00:21:13;;;;;;;8.57;4.40;;;;;;;8.57;76.64;94880.50;5103971;28;20097;-74
2023/11/08 00:23:39;;;;;;;8.60;4.60;;;;;;;8.57;77.13;94862.38;5106262;28;20089;-75
2023/11/08 00:26:06;;;;;;;11.35;6.45;;;;;;;8.61;77.38;94848.25;5108454;28;20023;-75
2023/11/08 00:28:32;;;;;;;14.90;5.47;;;;;;;8.48;77.75;94833.63;5107189;28;20111;-74
2023/11/08 00:30:57;;;;;;;11.38;6.43;;;;;;;8.75;77.74;94814.38;5088842;28;20032;-74
2023/11/08 00:33:24;;;;;;;9.60;5.45;;;;;;;8.57;77.65;94810.59;5105290;28;20035;-74
2023/11/08 00:35:50;;;;;;;6.78;4.60;;;;;;;8.64;78.11;94799.66;5089798;28;20408;-75
2023/11/08 00:38:15;;;;;;;10.75;5.72;;;;;;;8.54;78.52;94831.53;5105845;28;20019;-75
2023/11/08 00:40:40;;;;;;;11.60;7.20;;;;;;;8.49;78.01;94843.03;5106519;28;20023;-75
2023/11/08 00:43:06;;;;;;;15.05;6.10;;;;;;;8.42;78.60;94822.91;5107156;28;20024;-74
2023/11/08 00:45:33;;;;;;;13.00;5.93;;;;;;;8.24;77.80;94779.28;5106431;28;20565;-74
2023/11/08 00:48:01;;;;;;;13.93;5.28;;;;;;;8.48;78.00;94815.50;5088844;28;20509;-74
2023/11/08 00:50:27;;;;;;;10.52;5.00;;;;;;;8.49;77.88;94822.31;5087918;28;20034;-75
2023/11/08 00:52:53;;;;;;;9.70;4.93;;;;;;;8.57;77.57;94826.13;5089205;28;20084;-74
2023/11/08 00:55:19;;;;;;;8.85;4.85;;;;;;;8.14;78.25;94775.75;5106436;28;20039;-74
2023/11/08 00:57:44;;;;;;;10.63;4.70;;;;;;;8.25;77.93;94812.00;5089844;28;20024;-74
2023/11/08 01:00:10;;;;;;;12.10;6.30;;;;;;;8.39;78.53;94813.59;5107266;28;20031;-75
2023/11/08 01:02:36;;;;;;;12.55;5.63;;;;;;;8.37;78.10;94794.75;5087895;28;20112;-74
2023/11/08 01:05:01;;;;;;;11.23;6.03;;;;;;;8.41;78.32;94796.22;5107837;28;20027;-74
2023/11/08 01:07:27;;;;;;;15.00;6.55;;;;;;;8.34;78.27;94794.97;5100754;28;20028;-74
2023/11/08 01:09:52;;;;;;;12.65;5.72;;;;;;;8.37;78.42;94792.16;5104942;28;20084;-75
2023/11/08 01:12:18;;;;;;;9.50;5.30;;;;;;;8.35;78.67;94795.78;5102943;28;20035;-74
2023/11/08 01:14:43;;;;;;;15.00;7.00;;;;;;;8.20;79.64;94803.75;5102513;28;20028;-74
2023/11/08 01:17:10;;;;;;;11.30;5.65;;;;;;;8.47;78.23;94798.34;5104061;28;20524;-74
2023/11/08 01:19:36;;;;;;;11.63;6.32;;;;;;;8.56;78.09;94804.59;5102593;28;20028;-75
2023/11/08 01:22:05;;;;;;;14.55;7.40;;;;;;;8.29;78.12;94771.19;5100791;28;20062;-75
2023/11/08 01:24:34;;;;;;;14.90;6.47;;;;;;;8.20;78.94;94783.06;5105647;28;20435;-74
2023/11/08 01:27:00;;;;;;;13.23;6.45;;;;;;;8.41;78.61;94782.41;5112165;27;20124;-74
2023/11/08 01:29:26;;;;;;;10.95;5.85;;;;;;;8.48;77.95;94779.25;5109334;28;20031;-75
2023/11/08 01:31:54;;;;;;;11.00;5.55;;;;;;;8.54;77.85;94752.09;5108663;28;20156;-74
2023/11/08 01:34:19;;;;;;;8.95;4.80;;;;;;;8.44;77.91;94775.25;5092728;28;20662;-75
2023/11/08 01:36:44;;;;;;;9.32;5.30;;;;;;;8.68;77.51;94779.53;5089463;28;20081;-74
2023/11/08 01:39:10;;;;;;;8.98;5.38;;;;;;;8.42;77.69;94755.59;5111872;28;20143;-74
2023/11/08 01:41:36;;;;;;;8.75;4.95;;;;;;;8.50;77.78;94768.81;5105132;28;20114;-73
2023/11/08 01:44:03;;;;;;;11.10;5.43;;;;;;;8.49;77.16;94773.13;5090825;28;20070;-74
2023/11/08 01:46:28;;;;;;;13.15;6.55;;;;;;;8.48;77.46;94771.50;5107836;28;20038;-74
2023/11/08 01:48:54;;;;;;;10.45;4.93;;;;;;;8.42;78.43;94765.97;5093300;28;20032;-74
2023/11/08 01:51:19;;;;;;;10.75;4.93;;;;;;;8.46;77.98;94767.38;5074217;28;20022;-74
2023/11/08 01:53:45;;;;;;;8.80;4.55;;;;;;;8.47;78.14;94756.91;5091634;28;20118;-74
2023/11/08 01:56:10;;;;;;;10.90;4.70;;;;;;;8.45;77.99;94755.38;5092643;28;20062;-75
2023/11/08 01:58:38;;;;;;;8.18;4.97;;;;;;;8.52;78.35;94745.38;5111665;28;20074;-74
2023/11/08 02:01:09;;;;;;;9.70;4.45;;;;;;;8.27;79.23;94742.00;5093951;28;20118;-74
2023/11/08 02:03:35;;;;;;;10.75;4.93;;;;;;;8.20;79.38;94730.47;5109017;28;20097;-74
2023/11/08 02:06:01;;;;;;;6.93;4.47;;;;;;;8.45;79.55;94717.34;5092571;28;20027;-74
2023/11/08 02:08:27;;;;;;;12.35;4.30;;;;;;;8.25;79.35;94716.25;5109516;28;20497;-74
2023/11/08 02:10:53;;;;;;;8.10;4.40;;;;;;;8.35;80.01;94729.31;5108075;28;20028;-74
2023/11/08 02:13:18;;;;;;;7.97;4.43;;;;;;;8.45;79.90;94721.72;5091582;28;20039;-73
2023/11/08 02:15:44;;;;;;;9.38;4.63;;;;;;;8.49;80.01;94707.59;5109012;28;20020;-74
2023/11/08 02:18:10;;;;;;;9.40;4.72;;;;;;;8.66;79.93;94724.44;5110809;28;20024;-74
2023/11/08 02:20:35;;;;;;;9.85;5.03;;;;;;;8.69;79.72;94717.25;5106090;28;20020;-74
2023/11/08 02:23:01;;;;;;;11.55;5.70;;;;;;;8.89;78.51;94713.13;5108865;28;20043;-74
2023/11/08 02:25:27;;;;;;;11.32;4.68;;;;;;;8.87;78.90;94715.00;5108696;28;20445;-74
2023/11/08 02:27:53;;;;;;;12.52;4.47;;;;;;;8.91;77.71;94695.72;5092805;28;20579;-74
2023/11/08 02:30:18;;;;;;;9.73;4.63;;;;;;;8.92;77.68;94707.72;5107901;28;20039;-74
2023/11/08 02:32:44;;;;;;;8.77;4.65;;;;;;;9.11;77.01;94707.09;5109194;28;20035;-75
2023/11/08 02:35:09;;;;;;;7.50;4.22;;;;;;;9.18;77.44;94699.66;5110176;27;20054;-74
2023/11/08 02:37:35;;;;;;;10.73;4.72;;;;;;;9.06;77.39;94714.41;5107722;28;20386;-74
2023/11/08 02:40:01;;;;;;;13.50;4.72;;;;;;;9.36;76.50;94720.69;5107570;28;20500;-74
2023/11/08 02:42:27;;;;;;;14.18;5.65;;;;;;;9.37;76.26;94717.16;5108882;28;20485;-74
2023/11/08 02:44:53;;;;;;;13.65;5.97;;;;;;;9.24;76.13;94719.91;5108346;28;20062;-74
2023/11/08 02:47:19;;;;;;;9.77;5.47;;;;;;;9.53;75.67;94732.34;5070803;28;20417;-74
2023/11/08 02:49:44;;;;;;;8.55;4.93;;;;;;;9.45;75.86;94725.16;5107745;28;20040;-75
2023/11/08 02:52:10;;;;;;;12.70;5.18;;;;;;;9.35;75.96;94734.59;5109736;28;20039;-74
2023/11/08 02:54:35;;;;;;;10.43;5.13;;;;;;;9.13;76.70;94740.66;5091220;28;20032;-75
2023/11/08 02:57:01;;;;;;;11.00;5.38;;;;;;;9.01;77.83;94726.88;5109064;28;20032;-74
2023/11/08 02:59:28;;;;;;;17.05;6.43;;;;;;;9.21;76.37;94735.69;5108846;28;20040;-74
2023/11/08 03:01:54;;;;;;;9.80;5.25;;;;;;;9.22;75.98;94737.34;5108524;28;20107;-74
2023/11/08 03:04:20;;;;;;;9.15;4.80;;;;;;;9.27;75.87;94722.25;5110630;28;20509;-74
2023/11/08 03:06:46;;;;;;;7.63;4.57;;;;;;;9.22;76.18;94702.81;5090617;28;20024;-75
2023/11/08 03:09:11;;;;;;;7.20;4.20;;;;;;;9.25;75.81;94706.00;5108895;28;20023;-75
2023/11/08 03:11:38;;;;;;;10.18;4.10;;;;;;;9.21;76.10;94712.38;5076900;28;20026;-74
2023/11/08 03:14:06;;;;;;;10.30;4.18;;;;;;;9.21;76.07;94720.13;5108751;28;20035;-75
2023/11/08 03:16:33;;;;;;;10.10;4.47;;;;;;;9.16;75.72;94738.66;5110134;28;20055;-74
2023/11/08 03:18:59;;;;;;;10.32;4.95;;;;;;;8.90;77.04;94721.72;5093151;28;20032;-75
2023/11/08 03:21:24;;;;;;;15.32;6.28;;;;;;;8.98;76.22;94705.59;5093223;28;20488;-74
2023/11/08 03:23:50;;;;;;;12.63;6.13;;;;;;;8.83;76.37;94694.63;5084842;28;20032;-74
2023/11/08 03:26:15;;;;;;;10.80;5.72;;;;;;;9.08;76.30;94707.34;5091811;28;20028;-74
2023/11/08 03:28:40;;;;;;;12.90;5.50;;;;;;;9.08;76.40;94698.72;5092763;28;20456;-75
2023/11/08 03:31:08;;;;;;;11.25;5.47;;;;;;;8.92;77.13;94696.53;5092736;28;20031;-74
2023/11/08 03:33:34;;;;;;;11.02;5.10;;;;;;;8.82;76.98;94695.59;5105836;28;20500;-75
2023/11/08 03:36:00;;;;;;;11.93;4.72;;;;;;;8.86;77.66;94684.88;5112338;28;20028;-74
2023/11/08 03:38:25;;;;;;;11.25;4.88;;;;;;;8.93;76.66;94680.03;5111415;28;20032;-74
2023/11/08 03:40:51;;;;;;;10.30;4.93;;;;;;;8.76;76.90;94694.28;5111573;28;20539;-75
2023/11/08 03:43:18;;;;;;;9.93;5.28;;;;;;;8.87;76.57;94699.47;5109941;28;20050;-74
2023/11/08 03:45:43;;;;;;;8.85;5.25;;;;;;;8.70;77.07;94682.66;5111043;28;20084;-74
2023/11/08 03:48:09;;;;;;;9.40;4.45;;;;;;;8.64;77.37;94680.53;5111110;28;20118;-75
2023/11/08 03:50:34;;;;;;;8.85;3.90;;;;;;;8.25;77.48;94661.09;5111253;28;20019;-74
2023/11/08 03:52:59;;;;;;;11.23;4.75;;;;;;;8.45;77.85;94701.81;5111339;28;20024;-74
2023/11/08 03:55:26;;;;;;;13.95;4.40;;;;;;;8.46;77.83;94702.66;5112559;28;20027;-75
2023/11/08 03:57:51;;;;;;;6.97;3.90;;;;;;;8.55;77.65;94709.69;5086624;28;20024;-74
2023/11/08 04:00:17;;;;;;;10.43;4.25;;;;;;;8.42;78.46;94720.19;5106637;28;20447;-75
2023/11/08 04:02:42;;;;;;;8.95;4.53;;;;;;;7.97;80.45;94686.44;5106917;28;20409;-74
2023/11/08 04:05:08;;;;;;;10.48;4.63;;;;;;;8.38;79.25;94703.19;5109016;28;20035;-74
2023/11/08 04:07:33;;;;;;;10.00;5.30;;;;;;;8.28;79.26;94697.91;5105628;28;20054;-74
2023/11/08 04:09:59;;;;;;;8.25;4.68;;;;;;;8.59;78.58;94708.53;5106385;28;20504;-74
2023/11/08 04:12:24;;;;;;;11.38;4.72;;;;;;;8.73;78.72;94712.66;5109198;28;20019;-74
2023/11/08 04:14:50;;;;;;;10.57;5.07;;;;;;;8.53;79.25;94710.78;5103498;28;20027;-74
2023/11/08 04:17:17;;;;;;;9.73;5.95;;;;;;;8.45;79.12;94722.53;5107071;28;20077;-74
2023/11/08 04:19:45;;;;;;;10.77;6.20;;;;;;;8.71;78.57;94730.91;5107503;28;20457;-74
2023/11/08 04:22:11;;;;;;;13.48;7.65;;;;;;;8.13;81.26;94711.97;5074263;28;20034;-74
2023/11/08 04:24:36;;;;;;;16.60;7.05;;;;;;;8.23;80.16;94709.53;5105165;28;20039;-74
2023/11/08 04:27:04;;;;;;;12.48;6.82;;;;;;;8.54;80.04;94722.78;5107329;28;20034;-74
2023/11/08 04:29:31;;;;;;;10.45;5.57;;;;;;;8.40;81.17;94714.28;5107875;28;20107;-74
2023/11/08 04:31:56;;;;;;;8.60;4.90;;;;;;;8.58;80.65;94721.59;5090130;28;20032;-74
2023/11/08 04:34:21;;;;;;;8.45;5.40;;;;;;;8.64;79.51;94696.06;5107477;28;20036;-74
2023/11/08 04:36:47;;;;;;;9.82;5.43;;;;;;;8.50;79.55;94706.66;5090170;28;20035;-74
2023/11/08 04:39:15;;;;;;;12.07;5.32;;;;;;;8.77;79.44;94703.69;5108250;28;20088;-74
2023/11/08 04:41:41;;;;;;;8.25;4.68;;;;;;;8.84;79.69;94710.06;5090429;28;20582;-74
2023/11/08 04:44:06;;;;;;;7.97;4.53;;;;;;;8.82;80.17;94714.53;5106467;28;20052;-74
2023/11/08 04:46:32;;;;;;;8.68;4.63;;;;;;;8.86;80.38;94717.69;5107329;28;20031;-74
2023/11/08 04:48:57;;;;;;;8.15;4.00;;;;;;;8.85;80.17;94701.34;5108458;28;20035;-75
2023/11/08 04:51:22;;;;;;;10.57;4.88;;;;;;;8.71;80.27;94706.78;5105703;28;20034;-75
2023/11/08 04:53:48;;;;;;;15.70;7.45;;;;;;;8.99;79.60;94704.63;5106315;28;20040;-74
2023/11/08 04:56:13;;;;;;;16.85;6.70;;;;;;;8.64;79.71;94690.06;5107637;28;20023;-74
2023/11/08 04:58:39;;;;;;;12.50;5.80;;;;;;;8.90;79.58;94721.72;5106335;28;20104;-74
2023/11/08 05:01:04;;;;;;;11.50;5.90;;;;;;;9.02;78.63;94725.94;5106955;28;20035;-75
2023/11/08 05:03:30;;;;;;;9.10;5.22;;;;;;;9.16;78.83;94743.00;5104675;28;20030;-74
2023/11/08 05:05:55;;;;;;;9.95;4.30;;;;;;;9.24;79.13;94735.44;5106975;27;20093;-74
2023/11/08 05:08:22;;;;;;;10.57;4.40;;;;;;;8.97;78.99;94725.50;5107063;28;20019;-74
2023/11/08 05:10:48;;;;;;;10.95;4.40;;;;;;;9.29;78.53;94748.06;5108192;28;20023;-74
2023/11/08 05:13:15;;;;;;;9.20;4.03;;;;;;;9.20;78.19;94731.47;5106519;28;20031;-74
2023/11/08 05:15:40;;;;;;;12.40;4.32;;;;;;;9.51;77.51;94744.59;5107772;28;20039;-73
2023/11/08 05:18:07;;;;;;;8.73;4.32;;;;;;;9.61;77.17;94740.28;5109846;28;20019;-73
2023/11/08 05:20:35;;;;;;;6.40;4.28;;;;;;;9.47;78.27;94714.66;5107448;28;20039;-73
2023/11/08 05:23:00;;;;;;;12.75;4.90;;;;;;;9.55;77.76;94740.78;5101252;28;20413;-73
2023/11/08 05:25:26;;;;;;;8.57;4.60;;;;;;;9.77;76.97;94739.91;5105013;28;20067;-73
2023/11/08 05:27:53;;;;;;;9.98;3.60;;;;;;;9.74;77.45;94740.97;5107119;28;20496;-73
2023/11/08 05:30:19;;;;;;;6.45;3.63;;;;;;;9.69;77.94;94737.91;5105265;28;20034;-74
2023/11/08 05:32:45;;;;;;;6.78;4.05;;;;;;;9.78;77.71;94731.19;5104292;28;20028;-74
2023/11/08 05:35:13;;;;;;;9.20;3.70;;;;;;;9.83;75.67;94721.22;5105475;28;20046;-73
2023/11/08 05:37:41;;;;;;;7.50;3.33;;;;;;;9.92;76.20;94743.00;5105698;28;20039;-73
2023/11/08 05:40:25;;;;;;;5.75;3.10;;;;;;;9.96;75.74;94724.47;5106197;28;20166;-73
2023/11/08 05:42:51;;;;;;;9.05;3.00;;;;;;;10.14;74.55;94719.56;5100895;28;20059;-74
2023/11/08 05:45:17;;;;;;;7.80;2.75;;;;;;;10.25;74.21;94724.69;5109063;28;20130;-74
2023/11/08 05:47:44;;;;;;;8.75;2.60;;;;;;;10.25;74.36;94731.63;5106822;28;20089;-73
2023/11/08 05:50:10;;;;;;;8.25;3.25;;;;;;;10.14;74.68;94711.78;5108056;28;20048;-73
2023/11/08 05:52:35;;;;;;;12.88;5.88;;;;;;;10.21;75.58;94735.44;5105765;28;20450;-73
2023/11/08 05:55:01;;;;;;;14.57;6.97;;;;;;;10.28;75.25;94727.06;5105267;28;20032;-74
2023/11/08 05:57:26;;;;;;;10.70;5.22;;;;;;;10.49;74.32;94737.41;5105925;28;20050;-73
2023/11/08 05:59:52;;;;;;;8.18;4.72;;;;;;;10.52;73.79;94725.97;5106993;28;20428;-73
2023/11/08 06:02:17;;;;;;;10.93;4.53;;;;;;;10.44;74.17;94723.19;5104991;28;20027;-73
2023/11/08 06:04:43;;;;;;;8.23;4.15;;;;;;;10.34;74.39;94722.31;5105519;28;20035;-74
2023/11/08 06:07:08;;;;;;;8.55;4.07;;;;;;;10.68;73.86;94733.28;5088734;28;20055;-73
2023/11/08 06:09:33;;;;;;;10.63;4.13;;;;;;;10.76;74.30;94719.66;5106220;28;20040;-73
2023/11/08 06:11:59;;;;;;;7.13;4.07;;;;;;;10.64;74.70;94724.94;5111442;28;20123;-73
2023/11/08 06:14:25;;;;;;;6.53;3.65;;;;;;;10.65;74.76;94747.34;5112307;28;20023;-73
2023/11/08 06:16:52;;;;;;;6.90;3.20;;;;;;;10.79;75.60;94738.41;5090452;28;20073;-74
2023/11/08 06:19:17;;;;;;;5.63;3.47;;;;;;;10.80;74.87;94742.63;5107043;28;20111;-74
2023/11/08 06:21:47;;;;;;;7.25;3.00;;;;;;;10.78;74.34;94739.38;5111841;28;20102;-73
2023/11/08 06:24:13;;;;;;;6.57;2.63;;;;;;;10.84;74.47;94753.63;5092936;28;20028;-73
2023/11/08 06:26:38;;;;;;;9.60;2.97;;;;;;;10.89;74.54;94754.88;5123705;27;20229;-73
2023/11/08 06:29:03;;;;;;;7.82;3.28;;;;;;;11.10;74.61;94760.00;5109035;28;20043;-74
2023/11/08 06:31:34;;;;;;;7.05;2.67;;;;;;;10.98;74.51;94745.47;5108576;28;20451;-74
2023/11/08 06:34:00;;;;;;;7.82;2.55;;;;;;;10.84;74.65;94758.81;5091737;28;20043;-73
2023/11/08 06:36:25;;;;;;;10.02;2.95;;;;;;;10.98;75.13;94768.84;5109709;28;20413;-73
2023/11/08 06:38:50;;;;;;;9.43;2.70;;;;;;;11.06;75.54;94762.97;5105351;28;20032;-73
2023/11/08 06:41:16;;;;;;;9.40;2.60;;;;;;;11.04;75.48;94770.94;5110283;28;20061;-74
2023/11/08 06:43:43;;;;;;;8.95;3.20;;;;;;;11.17;75.36;94763.72;5109662;28;20452;-73
2023/11/08 06:46:08;;;;;;;9.07;3.08;;;;;;;11.35;74.59;94758.72;5110358;28;20067;-74
2023/11/08 06:48:34;;;;;;;5.63;2.80;;;;;;;11.18;75.71;94749.75;5089347;28;20040;-74
2023/11/08 06:51:00;;;;;;;8.00;2.92;;;;;;;11.22;74.48;94757.28;5110047;28;20053;-73
2023/11/08 06:53:26;;;;;;;7.35;2.80;;;;;;;11.32;74.78;94764.19;5105772;28;20668;-73
2023/11/08 06:55:51;;;;;;;6.57;2.70;;;;;;;11.34;74.33;94771.84;5108168;27;20035;-73
2023/11/08 06:58:17;;;;;;;6.45;2.75;;;;;;;11.26;74.45;94750.91;5104292;27;20049;-74
2023/11/08 07:00:42;;;;;;;6.65;2.90;;;;;;;11.31;74.86;94752.13;5108636;27;20035;-73
2023/11/08 07:03:09;;;;;;;7.68;2.88;;;;;;;11.28;75.08;94780.16;5108246;28;20020;-72
2023/11/08 07:05:34;;;;;;;10.90;3.05;;;;;;;11.42;72.39;94787.59;5108474;28;20486;-73
2023/11/08 07:08:00;;;;;;;8.98;2.92;;;;;;;11.42;71.40;94782.41;5105498;28;20034;-72
2023/11/08 07:10:25;;;;;;;6.88;2.75;;;;;;;11.63;71.40;94809.16;5110197;28;20024;-73
2023/11/08 07:12:53;;;;;;;9.57;2.50;;;;;;;11.65;71.80;94816.84;5091381;28;20028;-72
2023/11/08 07:15:19;;;;;;;5.57;2.35;;;;;;;11.84;68.88;94797.84;5090782;28;20813;-72
2023/11/08 07:17:45;;;;;;;6.35;2.50;;;;;;;11.77;69.57;94818.38;5104281;28;20520;-72
2023/11/08 07:20:11;;;;;;;8.00;3.28;;;;;;;11.88;71.13;94804.44;5106424;27;20036;-73
2023/11/08 07:22:37;;;;;;;11.07;2.83;;;;;;;11.94;71.82;94822.13;5086452;28;20325;-72
2023/11/08 07:25:03;;;;;;;6.05;2.67;;;;;;;11.98;72.22;94805.28;5105864;28;20032;-72
2023/11/08 07:27:29;;;;;;;8.45;2.80;;;;;;;12.12;73.01;94800.63;5103851;28;20032;-72
2023/11/08 07:29:55;;;;;;;6.38;2.63;;;;;;;12.05;73.72;94801.16;5106301;28;20036;-73
2023/11/08 07:32:20;;;;;;;8.65;2.88;;;;;;;11.80;73.19;94765.22;5073811;28;20027;-72
2023/11/08 07:34:46;;;;;;;9.43;2.90;;;;;;;11.65;75.53;94769.19;5109035;27;20085;-72
2023/11/08 07:37:13;;;;;;;7.03;2.83;;;;;;;11.61;75.77;94743.41;5088689;27;20035;-72
2023/11/08 07:39:39;;;;;;;8.93;3.08;;;;;;;11.38;76.80;94752.41;5091375;28;20078;-72
2023/11/08 07:42:05;;;;;;;8.65;3.97;;;;;;;11.50;76.78;94761.75;5108389;27;20035;-72
2023/11/08 07:44:30;;;;;;;12.45;4.43;;;;;;;11.64;77.52;94760.53;5106408;27;20053;-71
2023/11/08 07:46:59;;;;;;;11.32;4.28;;;;;;;11.53;78.65;94768.47;5106502;28;20019;-72
2023/11/08 07:49:24;;;;;;;11.07;4.53;;;;;;;11.66;81.20;94792.47;5104810;28;20464;-71
2023/11/08 07:51:51;;;;;;;8.63;3.90;;;;;;;11.65;80.85;94805.63;5089043;28;20041;-71
2023/11/08 07:54:17;;;;;;;11.90;4.03;;;;;;;11.56;80.87;94779.44;5102397;28;20064;-71
2023/11/08 07:56:44;;;;;;;10.80;4.00;;;;;;;11.75;81.20;94804.66;5090861;28;20048;-71
2023/11/08 07:59:09;;;;;;;11.80;4.40;;;;;;;11.77;81.31;94804.53;5084562;28;20532;-71
2023/11/08 08:01:35;;;;;;;10.02;4.53;;;;;;;11.88;81.03;94768.00;5108272;28;20145;-72
2023/11/08 08:04:00;;;;;;;8.70;4.88;;;;;;;11.86;80.92;94754.28;5107025;28;20137;-72
2023/11/08 08:06:26;;;;;;;9.30;5.00;;;;;;;11.74;82.73;94730.16;5090609;28;20047;-72
2023/11/08 08:08:51;;;;;;;19.90;5.20;;;;;;;11.60;81.11;94710.56;5086361;28;20169;-72
2023/11/08 08:11:17;;;;;;;11.30;5.00;;;;;;;11.42;81.94;94709.56;5090270;28;20405;-72
2023/11/08 08:13:45;;;;;;;9.93;6.30;;;;;;;11.51;81.78;94718.38;5090102;28;20066;-72
2023/11/08 08:16:11;;;;;;;11.13;4.40;;;;;;;11.59;81.88;94701.13;5106931;28;20034;-70
2023/11/08 08:18:36;;;;;;;8.40;3.85;;;;;;;11.51;78.50;94654.16;5120929;27;20416;-72
2023/11/08 08:21:02;;;;;;;8.50;3.70;;;;;;;11.33;79.35;94669.59;5108254;28;20035;-72
2023/11/08 08:23:28;;;;;;;9.65;4.60;;;;;;;11.15;82.60;94690.22;5106334;28;20036;-72
2023/11/08 08:25:54;;;;;;;8.75;2.83;;;;;;;11.17;82.05;94670.13;5089268;28;20035;-72
2023/11/08 08:28:19;;;;;;;11.07;3.30;;;;;;;11.35;81.67;94704.09;5069156;28;20059;-72
2023/11/08 08:30:44;;;;;;;10.45;3.28;;;;;;;11.38;81.65;94710.81;5107935;28;20051;-72
2023/11/08 08:33:10;;;;;;;10.52;4.72;;;;;;;11.55;81.47;94722.31;5106386;28;20512;-72
2023/11/08 08:35:35;;;;;;;12.70;4.45;;;;;;;11.74;81.34;94760.56;5105282;28;20027;-72
2023/11/08 08:38:01;;;;;;;8.63;5.60;;;;;;;11.73;81.23;94722.47;5103203;28;20073;-72
2023/11/08 08:40:27;;;;;;;10.73;5.85;;;;;;;11.59;81.62;94727.13;5107004;28;20035;-72
2023/11/08 08:42:52;;;;;;;13.98;6.57;;;;;;;11.48;81.72;94742.88;5107490;27;20077;-72
2023/11/08 08:45:18;;;;;;;21.77;10.60;;;;;;;11.65;81.87;94753.56;5106577;28;20043;-72
2023/11/08 08:47:43;;;;;;;25.05;11.25;;;;;;;11.80;80.86;94754.81;5086035;28;20047;-72
2023/11/08 08:50:11;;;;;;;50.10;22.35;;;;;;;11.84;80.43;94764.81;5088498;28;20505;-72
2023/11/08 08:52:37;;;;;;;22.42;10.77;;;;;;;11.97;79.53;94735.94;5086432;28;20047;-72
2023/11/08 08:55:03;;;;;;;13.43;6.65;;;;;;;11.96;78.10;94742.13;5106993;28;20076;-72
2023/11/08 08:57:28;;;;;;;15.15;6.95;;;;;;;11.97;77.28;94735.94;5102675;28;20069;-72
2023/11/08 08:59:54;;;;;;;14.32;5.97;;;;;;;11.87;77.24;94711.72;5089007;28;20501;-72
2023/11/08 09:02:19;;;;;;;6.82;4.22;;;;;;;11.77;75.71;94721.25;5106491;28;20049;-72
2023/11/08 09:04:45;;;;;;;16.40;4.47;;;;;;;11.79;76.02;94742.78;5089683;28;20089;-72
2023/11/08 09:07:11;;;;;;;13.70;5.15;;;;;;;11.70;77.33;94727.94;5087619;28;20040;-71
2023/11/08 09:09:36;;;;;;;10.70;4.93;;;;;;;11.88;77.10;94731.56;5105915;28;20422;-72
2023/11/08 09:12:02;;;;;;;12.57;4.80;;;;;;;12.08;77.07;94733.19;5107417;28;20027;-72
2023/11/08 09:14:28;;;;;;;9.93;5.43;;;;;;;11.87;77.73;94740.34;5105828;28;20046;-72
2023/11/08 09:16:56;;;;;;;8.07;4.68;;;;;;;11.74;78.14;94766.59;5106628;28;20035;-72
2023/11/08 09:19:22;;;;;;;10.18;4.70;;;;;;;11.85;77.96;94757.84;5105115;28;20084;-72
2023/11/08 09:21:47;;;;;;;11.57;5.63;;;;;;;12.02;77.56;94770.19;5104191;28;20039;-72
2023/11/08 09:24:13;;;;;;;11.18;4.60;;;;;;;12.01;78.46;94773.78;5086550;28;20108;-72
2023/11/08 09:26:41;;;;;;;11.75;4.43;;;;;;;11.78;76.59;94754.97;5088513;28;20027;-72
2023/11/08 09:29:07;;;;;;;12.13;6.25;;;;;;;11.82;78.05;94778.94;5104025;28;20039;-72
2023/11/08 09:31:33;;;;;;;16.23;8.40;;;;;;;11.90;77.88;94779.09;5089099;28;20085;-72
2023/11/08 09:34:00;;;;;;;11.85;6.47;;;;;;;12.03;78.96;94781.44;5107685;28;20024;-73
2023/11/08 09:36:26;;;;;;;19.38;6.32;;;;;;;11.92;80.46;94782.38;5089049;28;20046;-71
2023/11/08 09:38:52;;;;;;;13.35;4.53;;;;;;;11.75;80.38;94788.22;5100758;28;20389;-71
2023/11/08 09:41:19;;;;;;;15.40;4.60;;;;;;;11.60;81.06;94780.00;5103612;28;20057;-70
2023/11/08 09:43:45;;;;;;;13.18;5.10;;;;;;;11.74;81.55;94790.00;5080937;28;20518;-71
2023/11/08 09:46:11;;;;;;;11.07;5.25;;;;;;;11.85;82.21;94786.47;5108329;27;20035;-70
2023/11/08 09:48:37;;;;;;;8.38;4.68;;;;;;;12.02;82.10;94806.66;5109736;28;20482;-69
2023/11/08 09:51:02;;;;;;;10.77;4.45;;;;;;;11.74;82.19;94804.81;5105944;28;20025;-71
2023/11/08 09:53:29;;;;;;;8.55;4.05;;;;;;;11.96;82.39;94817.59;5111234;28;20042;-71
2023/11/08 09:55:55;;;;;;;9.05;4.65;;;;;;;12.05;82.99;94805.56;5108346;28;20036;-70
2023/11/08 09:58:21;;;;;;;11.93;4.47;;;;;;;12.05;82.94;94834.19;5111388;28;20114;-71
2023/11/08 10:00:46;;;;;;;11.70;4.20;;;;;;;12.05;82.66;94818.56;5111332;28;20370;-71
2023/11/08 10:03:12;;;;;;;12.57;5.63;;;;;;;11.89;83.38;94837.31;5095454;28;20032;-71
2023/11/08 10:05:37;;;;;;;13.23;6.50;;;;;;;12.00;83.09;94825.97;5097766;28;20156;-71
2023/11/08 10:08:09;;;;;;;18.77;6.68;;;;;;;12.02;83.00;94819.66;5129748;27;20527;-72
2023/11/08 10:10:37;;;;;;;13.05;6.05;;;;;;;12.07;82.80;94825.28;5128290;27;20409;-71
2023/11/08 10:13:04;;;;;;;9.10;5.25;;;;;;;12.10;83.58;94826.00;5126059;27;20034;-71
2023/11/08 10:15:30;;;;;;;10.57;5.80;;;;;;;12.17;83.81;94832.28;5145284;27;20035;-71
2023/11/08 10:17:56;;;;;;;13.65;5.70;;;;;;;12.18;83.58;94842.56;5110490;28;20455;-71
2023/11/08 10:20:21;;;;;;;12.48;5.30;;;;;;;11.95;83.52;94829.00;5129430;27;20027;-71
2023/11/08 10:22:47;;;;;;;12.60;6.35;;;;;;;12.15;83.74;94849.84;5147573;27;20504;-71
2023/11/08 10:25:12;;;;;;;11.88;5.03;;;;;;;12.17;83.48;94829.69;5113389;28;20097;-71
2023/11/08 10:27:38;;;;;;;12.23;5.30;;;;;;;11.76;86.39;94831.53;5130143;27;20036;-71
2023/11/08 10:30:18;;;;;;;14.18;4.80;;;;;;;11.92;84.88;94834.44;5129208;27;20166;-71
2023/11/08 10:32:44;;;;;;;11.77;4.63;;;;;;;11.83;84.99;94814.41;5111058;28;20365;-71
2023/11/08 10:35:21;;;;;;;13.35;5.35;;;;;;;11.74;84.54;94803.03;5128119;27;20413;-71
2023/11/08 10:37:49;;;;;;;10.48;5.15;;;;;;;11.59;84.90;94799.16;5109979;28;20463;-71
2023/11/08 10:40:15;;;;;;;13.10;4.68;;;;;;;11.62;85.39;94789.31;5144702;27;20434;-71
2023/11/08 10:42:48;;;;;;;12.13;4.43;;;;;;;11.71;85.36;94787.69;5110745;28;20055;-71
2023/11/08 10:45:13;;;;;;;10.68;4.55;;;;;;;11.73;83.62;94787.53;5127790;27;20543;-71
2023/11/08 10:47:40;;;;;;;9.75;4.55;;;;;;;11.70;84.45;94772.19;5112691;28;20036;-71
2023/11/08 10:50:06;;;;;;;11.98;5.40;;;;;;;11.58;84.60;94782.72;5114410;28;20047;-71
2023/11/08 10:52:35;;;;;;;14.30;5.65;;;;;;;11.76;84.62;94779.47;5129708;27;20034;-71
2023/11/08 10:55:04;;;;;;;11.40;6.45;;;;;;;11.93;84.17;94788.44;5112671;28;20457;-72
2023/11/08 10:57:29;;;;;;;23.30;11.45;;;;;;;11.88;85.11;94799.25;5129163;27;20039;-71
2023/11/08 10:59:56;;;;;;;22.27;9.88;;;;;;;11.72;86.02;94791.09;5129956;27;20024;-71
2023/11/08 11:02:33;;;;;;;22.95;10.05;;;;;;;11.60;86.08;94796.41;5129416;27;20063;-71
2023/11/08 11:05:03;;;;;;;18.60;11.68;;;;;;;11.61;86.25;94798.06;5113985;28;20499;-71
2023/11/08 11:07:28;;;;;;;14.45;8.48;;;;;;;11.71;86.47;94792.06;5112303;28;20036;-72
2023/11/08 11:09:54;;;;;;;6.85;3.75;;;;;;;11.43;87.06;94799.66;5129313;27;20061;-71
2023/11/08 11:12:25;;;;;;;9.20;4.18;;;;;;;11.45;87.08;94800.38;5112307;28;20106;-71
2023/11/08 11:14:51;;;;;;;6.88;3.88;;;;;;;11.52;87.40;94824.88;5129130;27;20054;-71
2023/11/08 11:17:22;;;;;;;7.03;3.00;;;;;;;11.42;87.26;94824.00;5129258;27;20035;-71
2023/11/08 11:19:49;;;;;;;6.03;2.65;;;;;;;11.51;86.84;94828.44;5129104;27;20119;-71
2023/11/08 11:22:16;;;;;;;6.18;2.78;;;;;;;11.56;86.72;94841.88;5146049;27;20040;-71
2023/11/08 11:24:42;;;;;;;5.05;2.70;;;;;;;11.59;87.03;94846.81;5128986;27;20080;-71
2023/11/08 11:27:33;;;;;;;4.88;2.60;;;;;;;11.51;86.87;94851.03;5112034;28;20031;-71